Terminal Aerodrome Forecast
Issued by NWS Milwaukee/Sullivan, WI

Home | Current Version | Previous Version | Text Only | Print | Product List | Glossary On
Versions: 1 2 3 4 5 6 7 8 9 10 11 12 13 14 15 16 17 18 19 20 21 22 23 24 25 26 27 28 29 30 31 32 33 34 35 36 37 38 39 40 41 42 43 44
000
FTUS43 KMKX 060520
TAFMKE
TAF
KMKE 060520Z 0606/0712 20005KT P6SM FEW250
     FM061800 18013G23KT P6SM SCT250
     FM070100 20013G21KT 5SM -TSRA BKN035CB OVC090
     FM070400 22010KT 3SM TSRA SCT025 OVC035CB
     FM070600 25010KT 4SM -SHRA OVC025
     FM070800 30010KT P6SM OVC025
     FM071000 32011KT P6SM OVC015=

USA.gov is the U.S. government's official web portal to all federal, state and local government web resources and services.